sensor_id;sensor_type;location;lat;lon;timestamp;temperature;humidity
20839;DHT22;10580;51.092;6.828;2022-07-04T00:01:14;15.20;99.90
20839;DHT22;10580;51.092;6.828;2022-07-04T00:03:39;15.20;99.90
20839;DHT22;10580;51.092;6.828;2022-07-04T00:06:05;15.10;99.90
20839;DHT22;10580;51.092;6.828;2022-07-04T00:08:31;15.10;99.90
20839;DHT22;10580;51.092;6.828;2022-07-04T00:10:59;15.10;99.90
20839;DHT22;10580;51.092;6.828;2022-07-04T00:13:25;15.10;99.90
20839;DHT22;10580;51.092;6.828;2022-07-04T00:15:51;15.00;99.90
20839;DHT22;10580;51.092;6.828;2022-07-04T00:18:27;15.00;99.90
20839;DHT22;10580;51.092;6.828;2022-07-04T00:20:53;15.00;99.90
20839;DHT22;10580;51.092;6.828;2022-07-04T00:23:20;15.00;99.90
20839;DHT22;10580;51.092;6.828;2022-07-04T00:25:54;14.90;99.90
20839;DHT22;10580;51.092;6.828;2022-07-04T00:28:20;15.00;99.90
20839;DHT22;10580;51.092;6.828;2022-07-04T00:31:06;14.90;99.90
20839;DHT22;10580;51.092;6.828;2022-07-04T00:33:34;14.90;99.90
20839;DHT22;10580;51.092;6.828;2022-07-04T00:36:02;14.90;99.90
20839;DHT22;10580;51.092;6.828;2022-07-04T00:38:32;14.90;99.90
20839;DHT22;10580;51.092;6.828;2022-07-04T00:41:00;14.90;99.90
20839;DHT22;10580;51.092;6.828;2022-07-04T00:52:40;14.70;99.90
20839;DHT22;10580;51.092;6.828;2022-07-04T00:55:06;14.70;99.90
20839;DHT22;10580;51.092;6.828;2022-07-04T00:57:38;14.60;99.90
20839;DHT22;10580;51.092;6.828;2022-07-04T01:00:13;14.50;99.90
20839;DHT22;10580;51.092;6.828;2022-07-04T01:02:39;14.40;99.90
20839;DHT22;10580;51.092;6.828;2022-07-04T01:05:08;14.30;99.90
20839;DHT22;10580;51.092;6.828;2022-07-04T01:13:35;14.30;99.90
20839;DHT22;10580;51.092;6.828;2022-07-04T01:16:01;14.30;99.90
20839;DHT22;10580;51.092;6.828;2022-07-04T01:18:39;14.30;99.90
20839;DHT22;10580;51.092;6.828;2022-07-04T01:21:10;14.30;99.90
20839;DHT22;10580;51.092;6.828;2022-07-04T01:23:41;14.30;99.90
20839;DHT22;10580;51.092;6.828;2022-07-04T01:46:53;14.00;99.90
20839;DHT22;10580;51.092;6.828;2022-07-04T01:49:19;14.00;99.90
20839;DHT22;10580;51.092;6.828;2022-07-04T01:51:46;13.90;99.90
20839;DHT22;10580;51.092;6.828;2022-07-04T01:54:12;13.80;99.90
20839;DHT22;10580;51.092;6.828;2022-07-04T01:56:39;13.80;99.90
20839;DHT22;10580;51.092;6.828;2022-07-04T01:59:06;13.70;99.90
20839;DHT22;10580;51.092;6.828;2022-07-04T02:01:34;13.70;99.90
20839;DHT22;10580;51.092;6.828;2022-07-04T02:04:12;13.70;99.90
20839;DHT22;10580;51.092;6.828;2022-07-04T02:10:04;13.70;99.90
20839;DHT22;10580;51.092;6.828;2022-07-04T02:12:36;13.60;99.90
20839;DHT22;10580;51.092;6.828;2022-07-04T02:15:30;13.60;99.90
20839;DHT22;10580;51.092;6.828;2022-07-04T02:18:10;13.60;99.90
20839;DHT22;10580;51.092;6.828;2022-07-04T02:20:54;13.50;99.90
20839;DHT22;10580;51.092;6.828;2022-07-04T02:23:19;13.50;99.90
20839;DHT22;10580;51.092;6.828;2022-07-04T02:25:45;13.50;99.90
20839;DHT22;10580;51.092;6.828;2022-07-04T02:28:10;13.40;99.90
20839;DHT22;10580;51.092;6.828;2022-07-04T02:33:25;13.40;99.90
20839;DHT22;10580;51.092;6.828;2022-07-04T02:35:51;13.30;99.90
20839;DHT22;10580;51.092;6.828;2022-07-04T02:38:17;13.30;99.90
20839;DHT22;10580;51.092;6.828;2022-07-04T02:40:43;13.30;99.90
20839;DHT22;10580;51.092;6.828;2022-07-04T02:43:08;13.30;99.90
20839;DHT22;10580;51.092;6.828;2022-07-04T02:45:34;13.30;99.90
20839;DHT22;10580;51.092;6.828;2022-07-04T02:48:10;13.20;99.90
20839;DHT22;10580;51.092;6.828;2022-07-04T02:50:35;13.20;99.90
20839;DHT22;10580;51.092;6.828;2022-07-04T02:53:01;13.10;99.90
20839;DHT22;10580;51.092;6.828;2022-07-04T02:55:27;13.10;99.90
20839;DHT22;10580;51.092;6.828;2022-07-04T02:57:53;13.10;99.90
20839;DHT22;10580;51.092;6.828;2022-07-04T03:00:19;13.00;99.90
20839;DHT22;10580;51.092;6.828;2022-07-04T03:02:45;13.00;99.90
20839;DHT22;10580;51.092;6.828;2022-07-04T03:05:11;13.00;99.90
20839;DHT22;10580;51.092;6.828;2022-07-04T03:08:02;13.00;99.90
20839;DHT22;10580;51.092;6.828;2022-07-04T03:10:28;13.00;99.90
20839;DHT22;10580;51.092;6.828;2022-07-04T03:12:54;13.00;99.90
20839;DHT22;10580;51.092;6.828;2022-07-04T03:15:27;13.00;99.90
20839;DHT22;10580;51.092;6.828;2022-07-04T03:18:04;13.00;99.90
20839;DHT22;10580;51.092;6.828;2022-07-04T03:20:30;13.00;99.90
20839;DHT22;10580;51.092;6.828;2022-07-04T03:22:55;12.90;99.90
20839;DHT22;10580;51.092;6.828;2022-07-04T03:25:24;13.00;99.90
20839;DHT22;10580;51.092;6.828;2022-07-04T03:27:50;13.00;99.90
20839;DHT22;10580;51.092;6.828;2022-07-04T03:30:16;13.00;99.90
20839;DHT22;10580;51.092;6.828;2022-07-04T03:32:42;13.00;99.90
20839;DHT22;10580;51.092;6.828;2022-07-04T03:35:08;13.00;99.90
20839;DHT22;10580;51.092;6.828;2022-07-04T03:37:39;13.00;99.90
20839;DHT22;10580;51.092;6.828;2022-07-04T03:40:11;12.90;99.90
20839;DHT22;10580;51.092;6.828;2022-07-04T03:42:36;12.90;99.90
20839;DHT22;10580;51.092;6.828;2022-07-04T03:45:08;12.90;99.90
20839;DHT22;10580;51.092;6.828;2022-07-04T03:47:37;12.90;99.90
20839;DHT22;10580;51.092;6.828;2022-07-04T03:50:16;12.80;99.90
20839;DHT22;10580;51.092;6.828;2022-07-04T03:53:04;12.90;99.90
20839;DHT22;10580;51.092;6.828;2022-07-04T03:55:30;12.80;99.90
20839;DHT22;10580;51.092;6.828;2022-07-04T03:57:56;12.90;99.90
20839;DHT22;10580;51.092;6.828;2022-07-04T04:00:31;12.90;99.90
20839;DHT22;10580;51.092;6.828;2022-07-04T04:05:42;12.90;99.90
20839;DHT22;10580;51.092;6.828;2022-07-04T04:08:36;13.00;99.90
20839;DHT22;10580;51.092;6.828;2022-07-04T04:11:04;13.00;99.90
20839;DHT22;10580;51.092;6.828;2022-07-04T04:13:30;13.00;99.90
20839;DHT22;10580;51.092;6.828;2022-07-04T04:15:59;13.00;99.90
20839;DHT22;10580;51.092;6.828;2022-07-04T04:18:31;13.10;99.90
20839;DHT22;10580;51.092;6.828;2022-07-04T04:21:05;13.20;99.90
20839;DHT22;10580;51.092;6.828;2022-07-04T04:23:33;13.20;99.90
20839;DHT22;10580;51.092;6.828;2022-07-04T04:25:59;13.30;99.90
20839;DHT22;10580;51.092;6.828;2022-07-04T04:31:54;13.50;99.90
20839;DHT22;10580;51.092;6.828;2022-07-04T04:34:24;13.60;99.90
20839;DHT22;10580;51.092;6.828;2022-07-04T04:36:52;13.70;99.90
20839;DHT22;10580;51.092;6.828;2022-07-04T04:39:18;13.80;99.90
20839;DHT22;10580;51.092;6.828;2022-07-04T04:41:51;14.00;99.90
20839;DHT22;10580;51.092;6.828;2022-07-04T04:44:40;14.00;99.90
20839;DHT22;10580;51.092;6.828;2022-07-04T04:47:23;14.20;99.90
20839;DHT22;10580;51.092;6.828;2022-07-04T04:49:59;14.40;99.90
20839;DHT22;10580;51.092;6.828;2022-07-04T04:52:47;14.50;99.90
20839;DHT22;10580;51.092;6.828;2022-07-04T04:55:31;14.80;99.90
20839;DHT22;10580;51.092;6.828;2022-07-04T04:57:57;15.00;99.90
20839;DHT22;10580;51.092;6.828;2022-07-04T05:00:23;15.20;99.90
20839;DHT22;10580;51.092;6.828;2022-07-04T05:02:52;15.40;99.90
20839;DHT22;10580;51.092;6.828;2022-07-04T05:05:17;15.60;99.90
20839;DHT22;10580;51.092;6.828;2022-07-04T05:07:43;15.80;82.50
20839;DHT22;10580;51.092;6.828;2022-07-04T05:10:12;16.00;34.30
20839;DHT22;10580;51.092;6.828;2022-07-04T05:15:26;16.50;1.00
20839;DHT22;10580;51.092;6.828;2022-07-04T05:18:14;16.80;1.00
20839;DHT22;10580;51.092;6.828;2022-07-04T05:20:41;17.00;1.00
20839;DHT22;10580;51.092;6.828;2022-07-04T05:23:10;17.30;1.00
20839;DHT22;10580;51.092;6.828;2022-07-04T05:25:43;17.60;1.00
20839;DHT22;10580;51.092;6.828;2022-07-04T05:28:09;17.90;1.00
20839;DHT22;10580;51.092;6.828;2022-07-04T05:30:47;17.90;1.00
20839;DHT22;10580;51.092;6.828;2022-07-04T05:33:14;18.40;1.00
20839;DHT22;10580;51.092;6.828;2022-07-04T05:35:43;18.60;1.00
20839;DHT22;10580;51.092;6.828;2022-07-04T05:38:12;18.80;1.00
20839;DHT22;10580;51.092;6.828;2022-07-04T05:40:40;19.00;1.00
20839;DHT22;10580;51.092;6.828;2022-07-04T05:43:06;19.50;1.00
20839;DHT22;10580;51.092;6.828;2022-07-04T05:45:34;19.60;99.90
20839;DHT22;10580;51.092;6.828;2022-07-04T05:48:47;20.10;99.90
20839;DHT22;10580;51.092;6.828;2022-07-04T05:51:38;20.70;99.90
20839;DHT22;10580;51.092;6.828;2022-07-04T05:54:04;21.00;1.00
20839;DHT22;10580;51.092;6.828;2022-07-04T05:56:38;21.10;1.00
20839;DHT22;10580;51.092;6.828;2022-07-04T05:59:26;20.90;99.90
20839;DHT22;10580;51.092;6.828;2022-07-04T06:05:06;21.60;1.00
20839;DHT22;10580;51.092;6.828;2022-07-04T06:07:32;22.10;75.30
20839;DHT22;10580;51.092;6.828;2022-07-04T06:09:57;22.70;1.00
20839;DHT22;10580;51.092;6.828;2022-07-04T06:12:23;23.10;1.00
20839;DHT22;10580;51.092;6.828;2022-07-04T06:14:51;23.40;99.90
20839;DHT22;10580;51.092;6.828;2022-07-04T06:17:19;22.60;1.00
20839;DHT22;10580;51.092;6.828;2022-07-04T06:20:05;22.30;99.90
20839;DHT22;10580;51.092;6.828;2022-07-04T06:22:46;22.90;1.00
20839;DHT22;10580;51.092;6.828;2022-07-04T06:25:19;23.60;1.00
20839;DHT22;10580;51.092;6.828;2022-07-04T06:31:24;24.30;1.00
20839;DHT22;10580;51.092;6.828;2022-07-04T06:36:56;24.60;99.90
20839;DHT22;10580;51.092;6.828;2022-07-04T06:39:32;23.90;99.90
20839;DHT22;10580;51.092;6.828;2022-07-04T06:42:03;24.20;99.90
20839;DHT22;10580;51.092;6.828;2022-07-04T06:44:31;24.40;1.00
20839;DHT22;10580;51.092;6.828;2022-07-04T06:47:05;25.00;99.90
20839;DHT22;10580;51.092;6.828;2022-07-04T06:50:02;24.80;99.90
20839;DHT22;10580;51.092;6.828;2022-07-04T06:52:42;25.00;99.90
20839;DHT22;10580;51.092;6.828;2022-07-04T07:02:11;25.70;99.90
20839;DHT22;10580;51.092;6.828;2022-07-04T07:04:38;25.10;99.90
20839;DHT22;10580;51.092;6.828;2022-07-04T07:07:06;25.40;1.00
20839;DHT22;10580;51.092;6.828;2022-07-04T07:09:32;25.80;99.90
20839;DHT22;10580;51.092;6.828;2022-07-04T07:12:01;25.90;1.00
20839;DHT22;10580;51.092;6.828;2022-07-04T07:14:29;25.60;99.90
20839;DHT22;10580;51.092;6.828;2022-07-04T07:16:55;25.90;99.90
20839;DHT22;10580;51.092;6.828;2022-07-04T07:19:23;25.40;14.40
20839;DHT22;10580;51.092;6.828;2022-07-04T07:21:49;24.90;11.80
20839;DHT22;10580;51.092;6.828;2022-07-04T07:24:15;25.40;53.80
20839;DHT22;10580;51.092;6.828;2022-07-04T07:26:41;25.80;13.20
20839;DHT22;10580;51.092;6.828;2022-07-04T07:29:07;25.90;49.70
20839;DHT22;10580;51.092;6.828;2022-07-04T07:31:33;26.00;31.70
20839;DHT22;10580;51.092;6.828;2022-07-04T07:33:59;26.20;1.00
20839;DHT22;10580;51.092;6.828;2022-07-04T07:36:25;26.60;1.00
20839;DHT22;10580;51.092;6.828;2022-07-04T07:38:51;26.60;1.00
20839;DHT22;10580;51.092;6.828;2022-07-04T07:41:33;26.60;1.00
20839;DHT22;10580;51.092;6.828;2022-07-04T07:44:15;26.10;1.00
20839;DHT22;10580;51.092;6.828;2022-07-04T07:50:28;25.30;1.00
20839;DHT22;10580;51.092;6.828;2022-07-04T08:26:37;26.60;1.00
20839;DHT22;10580;51.092;6.828;2022-07-04T08:29:03;26.90;1.00
20839;DHT22;10580;51.092;6.828;2022-07-04T08:31:29;27.30;1.00
20839;DHT22;10580;51.092;6.828;2022-07-04T08:33:55;26.60;1.00
20839;DHT22;10580;51.092;6.828;2022-07-04T08:43:30;26.90;1.00
20839;DHT22;10580;51.092;6.828;2022-07-04T08:46:17;26.90;1.00
20839;DHT22;10580;51.092;6.828;2022-07-04T08:48:52;27.20;1.00
20839;DHT22;10580;51.092;6.828;2022-07-04T08:51:41;27.60;1.00
20839;DHT22;10580;51.092;6.828;2022-07-04T08:54:31;27.90;1.00
20839;DHT22;10580;51.092;6.828;2022-07-04T08:57:42;28.00;1.00
20839;DHT22;10580;51.092;6.828;2022-07-04T09:00:26;27.90;1.00
20839;DHT22;10580;51.092;6.828;2022-07-04T09:02:53;27.60;1.00
20839;DHT22;10580;51.092;6.828;2022-07-04T09:05:20;27.50;1.00
20839;DHT22;10580;51.092;6.828;2022-07-04T09:07:46;27.80;1.00
20839;DHT22;10580;51.092;6.828;2022-07-04T09:10:13;28.00;1.00
20839;DHT22;10580;51.092;6.828;2022-07-04T09:12:39;28.30;1.00
20839;DHT22;10580;51.092;6.828;2022-07-04T09:18:59;27.40;1.00
20839;DHT22;10580;51.092;6.828;2022-07-04T09:24:49;27.50;1.00
20839;DHT22;10580;51.092;6.828;2022-07-04T09:27:37;27.00;1.00
20839;DHT22;10580;51.092;6.828;2022-07-04T09:30:07;27.50;1.00
20839;DHT22;10580;51.092;6.828;2022-07-04T09:32:48;27.60;1.00
20839;DHT22;10580;51.092;6.828;2022-07-04T09:35:24;27.90;1.00
20839;DHT22;10580;51.092;6.828;2022-07-04T09:37:58;28.40;1.00
20839;DHT22;10580;51.092;6.828;2022-07-04T09:40:29;28.60;1.00
20839;DHT22;10580;51.092;6.828;2022-07-04T09:43:02;28.40;1.00
20839;DHT22;10580;51.092;6.828;2022-07-04T09:45:36;28.30;1.00
20839;DHT22;10580;51.092;6.828;2022-07-04T09:48:17;28.40;1.00
20839;DHT22;10580;51.092;6.828;2022-07-04T09:50:43;28.60;1.00
20839;DHT22;10580;51.092;6.828;2022-07-04T09:53:09;28.40;1.00
20839;DHT22;10580;51.092;6.828;2022-07-04T09:55:39;28.10;1.00
20839;DHT22;10580;51.092;6.828;2022-07-04T09:58:09;28.20;1.00
20839;DHT22;10580;51.092;6.828;2022-07-04T10:00:36;27.60;1.00
20839;DHT22;10580;51.092;6.828;2022-07-04T10:13:39;28.80;1.00
20839;DHT22;10580;51.092;6.828;2022-07-04T10:16:05;28.80;1.00
20839;DHT22;10580;51.092;6.828;2022-07-04T10:18:33;28.80;1.00
20839;DHT22;10580;51.092;6.828;2022-07-04T10:21:00;28.80;1.00
20839;DHT22;10580;51.092;6.828;2022-07-04T10:33:09;28.60;1.00
20839;DHT22;10580;51.092;6.828;2022-07-04T10:39:00;28.50;1.00
20839;DHT22;10580;51.092;6.828;2022-07-04T10:57:24;28.60;1.00
20839;DHT22;10580;51.092;6.828;2022-07-04T11:16:20;27.90;1.00
20839;DHT22;10580;51.092;6.828;2022-07-04T11:22:22;28.70;1.00
20839;DHT22;10580;51.092;6.828;2022-07-04T11:24:48;28.90;1.00
20839;DHT22;10580;51.092;6.828;2022-07-04T11:27:27;28.90;1.00
20839;DHT22;10580;51.092;6.828;2022-07-04T11:37:56;28.50;1.00
20839;DHT22;10580;51.092;6.828;2022-07-04T11:40:05;28.70;1.00
20839;DHT22;10580;51.092;6.828;2022-07-04T13:15:49;27.50;1.00
20839;DHT22;10580;51.092;6.828;2022-07-04T13:18:15;26.90;1.00
20839;DHT22;10580;51.092;6.828;2022-07-04T13:20:50;26.90;1.00
20839;DHT22;10580;51.092;6.828;2022-07-04T13:42:30;26.20;1.00
20839;DHT22;10580;51.092;6.828;2022-07-04T13:48:52;25.60;1.00
20839;DHT22;10580;51.092;6.828;2022-07-04T13:54:51;26.70;1.00
20839;DHT22;10580;51.092;6.828;2022-07-04T13:57:24;26.90;1.00
20839;DHT22;10580;51.092;6.828;2022-07-04T14:00:00;26.70;1.00
20839;DHT22;10580;51.092;6.828;2022-07-04T14:02:26;26.70;1.00
20839;DHT22;10580;51.092;6.828;2022-07-04T14:05:14;27.10;1.00
20839;DHT22;10580;51.092;6.828;2022-07-04T14:08:12;27.00;1.00
20839;DHT22;10580;51.092;6.828;2022-07-04T14:10:39;26.30;1.00
20839;DHT22;10580;51.092;6.828;2022-07-04T14:13:15;26.00;1.00
20839;DHT22;10580;51.092;6.828;2022-07-04T14:15:41;26.00;1.00
20839;DHT22;10580;51.092;6.828;2022-07-04T14:18:07;25.70;1.00
20839;DHT22;10580;51.092;6.828;2022-07-04T14:20:46;25.70;1.00
20839;DHT22;10580;51.092;6.828;2022-07-04T14:23:27;25.60;1.00
20839;DHT22;10580;51.092;6.828;2022-07-04T14:26:12;25.40;1.00
20839;DHT22;10580;51.092;6.828;2022-07-04T14:28:39;25.40;1.00
20839;DHT22;10580;51.092;6.828;2022-07-04T14:31:08;25.50;1.00
20839;DHT22;10580;51.092;6.828;2022-07-04T14:40:18;26.60;1.00
20839;DHT22;10580;51.092;6.828;2022-07-04T14:42:44;26.90;1.00
20839;DHT22;10580;51.092;6.828;2022-07-04T14:45:10;26.90;1.00
20839;DHT22;10580;51.092;6.828;2022-07-04T14:47:35;27.20;1.00
20839;DHT22;10580;51.092;6.828;2022-07-04T14:50:04;27.30;1.00
20839;DHT22;10580;51.092;6.828;2022-07-04T14:52:29;27.00;1.00
20839;DHT22;10580;51.092;6.828;2022-07-04T15:01:27;27.00;1.00
20839;DHT22;10580;51.092;6.828;2022-07-04T15:03:55;26.50;1.00
20839;DHT22;10580;51.092;6.828;2022-07-04T15:06:34;26.40;1.00
20839;DHT22;10580;51.092;6.828;2022-07-04T15:09:05;26.10;1.00
20839;DHT22;10580;51.092;6.828;2022-07-04T15:11:32;26.40;1.00
20839;DHT22;10580;51.092;6.828;2022-07-04T15:13:58;26.40;1.00
20839;DHT22;10580;51.092;6.828;2022-07-04T15:16:23;26.30;1.00
20839;DHT22;10580;51.092;6.828;2022-07-04T15:22:22;25.40;1.00
20839;DHT22;10580;51.092;6.828;2022-07-04T15:28:49;25.70;1.00
20839;DHT22;10580;51.092;6.828;2022-07-04T15:31:21;26.00;1.00
20839;DHT22;10580;51.092;6.828;2022-07-04T15:37:24;26.20;1.00
20839;DHT22;10580;51.092;6.828;2022-07-04T15:39:52;26.20;1.00
20839;DHT22;10580;51.092;6.828;2022-07-04T15:42:18;26.10;1.00
20839;DHT22;10580;51.092;6.828;2022-07-04T15:44:43;26.20;1.00
20839;DHT22;10580;51.092;6.828;2022-07-04T15:47:29;26.10;1.00
20839;DHT22;10580;51.092;6.828;2022-07-04T15:53:33;26.00;1.00
20839;DHT22;10580;51.092;6.828;2022-07-04T15:55:59;25.80;1.00
20839;DHT22;10580;51.092;6.828;2022-07-04T15:58:24;25.30;1.00
20839;DHT22;10580;51.092;6.828;2022-07-04T16:00:53;25.10;1.00
20839;DHT22;10580;51.092;6.828;2022-07-04T16:03:18;25.20;1.00
20839;DHT22;10580;51.092;6.828;2022-07-04T16:05:50;25.40;1.00
20839;DHT22;10580;51.092;6.828;2022-07-04T16:08:16;25.50;1.00
20839;DHT22;10580;51.092;6.828;2022-07-04T16:10:51;25.70;1.00
20839;DHT22;10580;51.092;6.828;2022-07-04T16:13:19;25.80;1.00
20839;DHT22;10580;51.092;6.828;2022-07-04T16:16:22;25.80;1.00
20839;DHT22;10580;51.092;6.828;2022-07-04T16:18:48;25.30;1.00
20839;DHT22;10580;51.092;6.828;2022-07-04T16:21:16;25.00;1.00
20839;DHT22;10580;51.092;6.828;2022-07-04T16:23:45;25.00;1.00
20839;DHT22;10580;51.092;6.828;2022-07-04T16:26:11;25.00;1.00
20839;DHT22;10580;51.092;6.828;2022-07-04T16:29:05;25.20;1.00
20839;DHT22;10580;51.092;6.828;2022-07-04T16:31:35;25.20;1.00
20839;DHT22;10580;51.092;6.828;2022-07-04T16:34:03;25.30;1.00
20839;DHT22;10580;51.092;6.828;2022-07-04T16:36:28;25.40;1.00
20839;DHT22;10580;51.092;6.828;2022-07-04T16:39:00;25.30;1.00
20839;DHT22;10580;51.092;6.828;2022-07-04T16:41:29;25.30;1.00
20839;DHT22;10580;51.092;6.828;2022-07-04T16:43:55;25.30;1.00
20839;DHT22;10580;51.092;6.828;2022-07-04T16:46:21;25.30;1.00
20839;DHT22;10580;51.092;6.828;2022-07-04T16:48:49;25.40;1.00
20839;DHT22;10580;51.092;6.828;2022-07-04T16:54:35;25.10;1.00
20839;DHT22;10580;51.092;6.828;2022-07-04T16:57:08;25.20;1.00
20839;DHT22;10580;51.092;6.828;2022-07-04T16:59:34;25.20;1.00
20839;DHT22;10580;51.092;6.828;2022-07-04T17:04:35;25.00;1.00
20839;DHT22;10580;51.092;6.828;2022-07-04T17:07:09;24.80;1.00
20839;DHT22;10580;51.092;6.828;2022-07-04T17:09:37;24.50;1.00
20839;DHT22;10580;51.092;6.828;2022-07-04T17:12:07;24.40;1.00
20839;DHT22;10580;51.092;6.828;2022-07-04T17:21:46;24.30;1.00
20839;DHT22;10580;51.092;6.828;2022-07-04T17:37:44;24.20;1.00
20839;DHT22;10580;51.092;6.828;2022-07-04T17:40:13;24.20;1.00
20839;DHT22;10580;51.092;6.828;2022-07-04T17:42:44;24.20;1.00
20839;DHT22;10580;51.092;6.828;2022-07-04T17:45:10;24.10;1.00
20839;DHT22;10580;51.092;6.828;2022-07-04T17:47:36;24.00;1.00
20839;DHT22;10580;51.092;6.828;2022-07-04T17:50:04;24.10;1.00
20839;DHT22;10580;51.092;6.828;2022-07-04T18:06:44;24.00;1.00
20839;DHT22;10580;51.092;6.828;2022-07-04T18:09:27;23.90;1.00
20839;DHT22;10580;51.092;6.828;2022-07-04T18:12:08;23.80;1.00
20839;DHT22;10580;51.092;6.828;2022-07-04T18:14:54;23.70;1.00
20839;DHT22;10580;51.092;6.828;2022-07-04T18:17:19;23.50;1.00
20839;DHT22;10580;51.092;6.828;2022-07-04T18:19:45;23.50;1.00
20839;DHT22;10580;51.092;6.828;2022-07-04T18:22:11;23.50;1.00
20839;DHT22;10580;51.092;6.828;2022-07-04T18:24:42;23.40;1.00
20839;DHT22;10580;51.092;6.828;2022-07-04T18:30:37;23.40;1.00
20839;DHT22;10580;51.092;6.828;2022-07-04T18:46:18;23.10;1.00
20839;DHT22;10580;51.092;6.828;2022-07-04T18:48:44;23.00;1.00
20839;DHT22;10580;51.092;6.828;2022-07-04T18:51:22;23.00;1.00
20839;DHT22;10580;51.092;6.828;2022-07-04T18:53:48;23.00;1.00
20839;DHT22;10580;51.092;6.828;2022-07-04T18:56:14;22.90;1.00
20839;DHT22;10580;51.092;6.828;2022-07-04T18:58:45;22.90;1.00
20839;DHT22;10580;51.092;6.828;2022-07-04T19:01:10;22.90;1.00
20839;DHT22;10580;51.092;6.828;2022-07-04T19:03:39;22.90;1.00
20839;DHT22;10580;51.092;6.828;2022-07-04T19:06:05;22.80;1.00
20839;DHT22;10580;51.092;6.828;2022-07-04T19:08:31;22.70;1.00
20839;DHT22;10580;51.092;6.828;2022-07-04T19:11:00;22.70;1.00
20839;DHT22;10580;51.092;6.828;2022-07-04T19:13:25;22.60;99.90
20839;DHT22;10580;51.092;6.828;2022-07-04T19:18:52;22.30;99.90
20839;DHT22;10580;51.092;6.828;2022-07-04T19:21:24;22.10;99.90
20839;DHT22;10580;51.092;6.828;2022-07-04T19:23:52;22.10;99.90
20839;DHT22;10580;51.092;6.828;2022-07-04T19:26:18;21.90;1.00
20839;DHT22;10580;51.092;6.828;2022-07-04T19:32:19;21.70;99.90
20839;DHT22;10580;51.092;6.828;2022-07-04T19:34:48;21.60;99.90
20839;DHT22;10580;51.092;6.828;2022-07-04T19:37:14;21.50;99.90
20839;DHT22;10580;51.092;6.828;2022-07-04T20:03:58;20.50;1.00
20839;DHT22;10580;51.092;6.828;2022-07-04T20:06:24;20.50;99.90
20839;DHT22;10580;51.092;6.828;2022-07-04T20:27:49;19.80;1.00
20839;DHT22;10580;51.092;6.828;2022-07-04T20:53:55;19.70;1.00
20839;DHT22;10580;51.092;6.828;2022-07-04T20:56:21;19.80;99.90
20839;DHT22;10580;51.092;6.828;2022-07-04T20:58:46;19.80;99.90
20839;DHT22;10580;51.092;6.828;2022-07-04T21:01:12;19.80;1.00
20839;DHT22;10580;51.092;6.828;2022-07-04T21:03:38;19.70;1.00
20839;DHT22;10580;51.092;6.828;2022-07-04T21:12:37;19.60;99.90
20839;DHT22;10580;51.092;6.828;2022-07-04T21:19:18;19.60;99.90
20839;DHT22;10580;51.092;6.828;2022-07-04T21:24:35;19.40;99.90
20839;DHT22;10580;51.092;6.828;2022-07-04T21:30:54;19.40;1.00
20839;DHT22;10580;51.092;6.828;2022-07-04T21:43:44;19.10;1.00
20839;DHT22;10580;51.092;6.828;2022-07-04T21:46:15;19.00;1.00
20839;DHT22;10580;51.092;6.828;2022-07-04T21:48:41;19.00;1.00
20839;DHT22;10580;51.092;6.828;2022-07-04T21:51:07;18.90;1.00
20839;DHT22;10580;51.092;6.828;2022-07-04T21:53:32;18.90;1.00
20839;DHT22;10580;51.092;6.828;2022-07-04T21:56:08;18.90;1.00
20839;DHT22;10580;51.092;6.828;2022-07-04T22:08:30;18.70;1.00
20839;DHT22;10580;51.092;6.828;2022-07-04T22:11:04;18.70;1.00
20839;DHT22;10580;51.092;6.828;2022-07-04T22:13:33;18.60;1.00
20839;DHT22;10580;51.092;6.828;2022-07-04T22:15:59;18.70;1.00
20839;DHT22;10580;51.092;6.828;2022-07-04T22:18:25;18.60;1.00
20839;DHT22;10580;51.092;6.828;2022-07-04T22:20:55;18.70;1.00
20839;DHT22;10580;51.092;6.828;2022-07-04T22:23:31;18.60;1.00
20839;DHT22;10580;51.092;6.828;2022-07-04T22:25:57;18.50;1.00
20839;DHT22;10580;51.092;6.828;2022-07-04T22:28:23;18.50;1.00
20839;DHT22;10580;51.092;6.828;2022-07-04T22:31:14;18.50;1.00
20839;DHT22;10580;51.092;6.828;2022-07-04T22:33:49;18.40;1.00
20839;DHT22;10580;51.092;6.828;2022-07-04T22:36:39;18.40;1.00
20839;DHT22;10580;51.092;6.828;2022-07-04T22:56:28;18.10;1.00
20839;DHT22;10580;51.092;6.828;2022-07-04T22:59:00;18.00;1.00
20839;DHT22;10580;51.092;6.828;2022-07-04T23:01:29;17.90;1.00
20839;DHT22;10580;51.092;6.828;2022-07-04T23:03:55;17.90;1.00
20839;DHT22;10580;51.092;6.828;2022-07-04T23:06:21;17.90;1.00
20839;DHT22;10580;51.092;6.828;2022-07-04T23:08:53;17.90;1.00
20839;DHT22;10580;51.092;6.828;2022-07-04T23:11:30;17.90;1.00
20839;DHT22;10580;51.092;6.828;2022-07-04T23:14:01;18.00;1.00
20839;DHT22;10580;51.092;6.828;2022-07-04T23:16:27;18.00;1.00
20839;DHT22;10580;51.092;6.828;2022-07-04T23:18:52;17.90;1.00
20839;DHT22;10580;51.092;6.828;2022-07-04T23:21:18;17.90;1.00
20839;DHT22;10580;51.092;6.828;2022-07-04T23:23:44;17.90;1.00
20839;DHT22;10580;51.092;6.828;2022-07-04T23:26:18;17.90;1.00
20839;DHT22;10580;51.092;6.828;2022-07-04T23:28:44;17.80;1.00
20839;DHT22;10580;51.092;6.828;2022-07-04T23:31:13;17.80;1.00
20839;DHT22;10580;51.092;6.828;2022-07-04T23:33:41;17.70;1.00
20839;DHT22;10580;51.092;6.828;2022-07-04T23:36:17;17.70;1.00
20839;DHT22;10580;51.092;6.828;2022-07-04T23:38:43;17.70;1.00
20839;DHT22;10580;51.092;6.828;2022-07-04T23:41:09;17.70;1.00
20839;DHT22;10580;51.092;6.828;2022-07-04T23:43:35;17.70;1.00
20839;DHT22;10580;51.092;6.828;2022-07-04T23:46:07;17.70;1.00
20839;DHT22;10580;51.092;6.828;2022-07-04T23:48:39;17.60;1.00
20839;DHT22;10580;51.092;6.828;2022-07-04T23:51:06;17.60;1.00
20839;DHT22;10580;51.092;6.828;2022-07-04T23:53:32;17.60;1.00
20839;DHT22;10580;51.092;6.828;2022-07-04T23:55:58;17.60;1.00
